createdAt,value
2019-02-17T00:01:45.899Z,89.40
2019-02-17T00:04:17.720Z,94.20
2019-02-17T00:06:49.938Z,103.00
2019-02-17T00:09:21.689Z,94.00
2019-02-17T00:11:53.328Z,96.00
2019-02-17T00:14:24.828Z,91.60
2019-02-17T00:16:56.421Z,95.00
2019-02-17T00:19:27.749Z,90.40
2019-02-17T00:21:59.673Z,93.60
2019-02-17T00:24:31.127Z,84.00
2019-02-17T00:27:02.690Z,87.00
2019-02-17T00:29:34.439Z,86.60
2019-02-17T00:32:05.924Z,101.80
2019-02-17T00:34:37.796Z,95.80
2019-02-17T00:37:09.392Z,100.80
2019-02-17T00:39:41.126Z,97.60
2019-02-17T00:42:12.559Z,103.20
2019-02-17T00:44:43.902Z,94.00
2019-02-17T00:47:15.232Z,108.40
2019-02-17T00:49:46.704Z,92.60
2019-02-17T00:52:18.169Z,109.80
2019-02-17T00:54:49.544Z,102.20
2019-02-17T00:57:20.942Z,104.80
2019-02-17T00:59:52.827Z,105.00
2019-02-17T01:02:25.713Z,96.40
2019-02-17T01:04:57.140Z,100.20
2019-02-17T01:07:29.318Z,103.60
2019-02-17T01:10:00.634Z,101.60
2019-02-17T01:12:32.752Z,92.20
2019-02-17T01:15:04.381Z,98.60
2019-02-17T01:17:35.825Z,97.40
2019-02-17T01:20:07.707Z,92.80
2019-02-17T01:22:39.073Z,81.00
2019-02-17T01:25:10.835Z,98.80
2019-02-17T01:27:42.121Z,90.20
2019-02-17T01:30:15.766Z,97.60
2019-02-17T01:32:47.623Z,82.60
2019-02-17T01:35:19.260Z,104.20
2019-02-17T01:37:50.615Z,99.00
2019-02-17T01:40:23.613Z,106.80
2019-02-17T01:42:55.323Z,110.60
2019-02-17T01:45:27.053Z,105.20
2019-02-17T01:47:58.515Z,117.60
2019-02-17T01:50:30.117Z,99.20
2019-02-17T01:53:01.486Z,104.20
2019-02-17T01:55:32.892Z,117.80
2019-02-17T01:58:04.507Z,114.80
2019-02-17T02:00:36.010Z,125.40
2019-02-17T02:03:07.799Z,119.00
2019-02-17T02:05:39.576Z,119.20
2019-02-17T02:08:11.399Z,122.60
2019-02-17T02:10:42.762Z,130.00
2019-02-17T02:13:14.426Z,136.40
2019-02-17T02:15:45.732Z,114.00
2019-02-17T02:18:17.103Z,129.40
2019-02-17T02:20:48.741Z,123.60
2019-02-17T02:23:20.094Z,138.60
2019-02-17T02:25:51.317Z,126.00
2019-02-17T02:28:23.361Z,131.40
2019-02-17T02:30:54.333Z,134.40
2019-02-17T02:33:25.642Z,131.40
2019-02-17T02:35:56.629Z,127.20
2019-02-17T02:38:28.158Z,134.20
2019-02-17T02:40:59.622Z,127.20
2019-02-17T02:43:31.028Z,125.20
2019-02-17T02:46:02.439Z,122.40
2019-02-17T02:48:33.924Z,120.60
2019-02-17T02:51:05.496Z,130.40
2019-02-17T02:53:37.121Z,132.20
2019-02-17T02:56:08.704Z,135.40
2019-02-17T02:58:40.404Z,124.40
2019-02-17T03:01:12.094Z,108.80
2019-02-17T03:03:45.978Z,127.20
2019-02-17T03:06:51.192Z,110.80
2019-02-17T03:09:23.351Z,110.40
2019-02-17T03:11:54.735Z,111.20
2019-02-17T03:14:26.772Z,106.00
2019-02-17T03:17:00.512Z,97.00
2019-02-17T03:19:31.063Z,114.00
2019-02-17T03:22:02.306Z,120.20
2019-02-17T03:24:37.323Z,112.40
2019-02-17T03:27:08.971Z,113.40
2019-02-17T03:29:40.485Z,105.40
2019-02-17T03:32:12.141Z,104.20
2019-02-17T03:34:44.106Z,120.80
2019-02-17T03:37:15.622Z,111.60
2019-02-17T03:39:47.677Z,102.80
2019-02-17T03:42:19.118Z,114.80
2019-02-17T03:44:50.707Z,105.60
2019-02-17T03:47:22.286Z,112.40
2019-02-17T03:49:53.997Z,93.00
2019-02-17T03:52:25.166Z,101.40
2019-02-17T03:54:56.738Z,113.20
2019-02-17T03:57:28.308Z,110.40
2019-02-17T04:00:00.835Z,104.40
2019-02-17T04:02:32.467Z,107.00
2019-02-17T04:05:04.313Z,100.80
2019-02-17T04:07:35.711Z,96.20
2019-02-17T04:10:07.491Z,93.60
2019-02-17T04:12:38.774Z,97.40
2019-02-17T04:15:10.430Z,99.40
2019-02-17T04:17:42.306Z,86.00
2019-02-17T04:20:14.050Z,89.00
2019-02-17T04:22:45.664Z,89.20
2019-02-17T04:25:19.161Z,95.80
2019-02-17T04:27:53.233Z,101.00
2019-02-17T04:30:29.354Z,83.00
2019-02-17T04:32:58.187Z,91.60
2019-02-17T04:35:29.811Z,89.80
2019-02-17T04:38:01.334Z,83.00
2019-02-17T04:40:32.753Z,81.20
2019-02-17T04:43:04.145Z,83.20
2019-02-17T04:45:35.997Z,91.60
2019-02-17T04:48:07.266Z,83.00
2019-02-17T04:50:39.100Z,83.80
2019-02-17T04:53:10.515Z,80.60
2019-02-17T04:55:42.184Z,76.60
2019-02-17T04:58:13.518Z,85.00
2019-02-17T05:00:45.330Z,76.60
2019-02-17T05:03:16.877Z,81.20
2019-02-17T05:05:48.407Z,72.20
2019-02-17T05:08:19.654Z,81.80
2019-02-17T05:10:51.097Z,81.00
2019-02-17T05:13:22.259Z,68.60
2019-02-17T05:15:53.579Z,78.40
2019-02-17T05:18:25.170Z,65.00
2019-02-17T05:20:56.827Z,67.00
2019-02-17T05:23:28.431Z,71.60
2019-02-17T05:25:59.867Z,68.00
2019-02-17T05:28:31.115Z,66.20
2019-02-17T05:31:02.969Z,68.00
2019-02-17T05:33:34.392Z,69.20
2019-02-17T05:36:06.166Z,73.40
2019-02-17T05:38:38.589Z,71.00
2019-02-17T05:41:10.235Z,71.20
2019-02-17T05:43:41.753Z,69.40
2019-02-17T05:46:13.449Z,61.40
2019-02-17T05:48:44.757Z,66.40
2019-02-17T05:51:16.239Z,67.20
2019-02-17T05:53:47.313Z,65.40
2019-02-17T05:56:19.148Z,61.20
2019-02-17T05:58:50.650Z,65.20
2019-02-17T06:01:22.287Z,64.20
2019-02-17T06:03:53.884Z,59.20
2019-02-17T06:06:25.716Z,66.20
2019-02-17T06:08:57.148Z,64.80
2019-02-17T06:11:28.523Z,64.40
2019-02-17T06:14:00.096Z,65.80
2019-02-17T06:16:33.051Z,36.20
2019-02-17T06:19:04.592Z,63.60
2019-02-17T06:21:35.917Z,62.00
2019-02-17T06:24:07.426Z,60.60
2019-02-17T06:26:38.898Z,61.00
2019-02-17T06:29:10.527Z,62.80
2019-02-17T06:31:42.246Z,62.80
2019-02-17T06:34:13.815Z,61.20
2019-02-17T06:36:45.391Z,61.20
2019-02-17T06:39:17.008Z,62.20
2019-02-17T06:41:48.384Z,58.20
2019-02-17T06:44:20.078Z,60.80
2019-02-17T06:46:56.103Z,57.40
2019-02-17T06:49:27.569Z,60.80
2019-02-17T06:51:58.849Z,58.00
2019-02-17T06:54:31.022Z,60.60
2019-02-17T06:57:08.772Z,59.00
2019-02-17T06:59:45.908Z,63.20
2019-02-17T07:02:17.498Z,60.60
2019-02-17T07:05:22.933Z,64.00
2019-02-17T07:07:54.132Z,60.20
2019-02-17T07:10:26.630Z,55.80
2019-02-17T07:12:58.182Z,59.00
2019-02-17T07:15:29.956Z,60.40
2019-02-17T07:18:01.356Z,59.60
2019-02-17T07:20:32.863Z,50.00
2019-02-17T07:23:04.357Z,57.60
2019-02-17T07:25:36.019Z,58.00
2019-02-17T07:28:07.586Z,59.60
2019-02-17T07:30:39.063Z,52.20
2019-02-17T07:33:10.485Z,61.60
2019-02-17T07:35:42.129Z,61.20
2019-02-17T07:38:14.211Z,60.80
2019-02-17T07:40:45.629Z,61.80
2019-02-17T07:43:17.154Z,53.40
2019-02-17T07:45:49.125Z,58.00
2019-02-17T07:48:20.594Z,53.40
2019-02-17T07:50:52.350Z,58.00
2019-02-17T07:53:24.183Z,60.80
2019-02-17T07:55:55.928Z,60.20
2019-02-17T07:58:27.278Z,59.60
2019-02-17T08:00:58.441Z,57.60
2019-02-17T08:03:29.757Z,63.60
2019-02-17T08:06:00.864Z,56.20
2019-02-17T08:08:32.265Z,59.20
2019-02-17T08:11:04.463Z,58.40
2019-02-17T08:13:36.561Z,53.20
2019-02-17T08:16:07.805Z,63.00
2019-02-17T08:18:39.245Z,57.40
2019-02-17T08:21:10.722Z,58.20
2019-02-17T08:23:41.956Z,64.60
2019-02-17T08:26:13.355Z,62.40
2019-02-17T08:28:44.799Z,64.20
2019-02-17T08:31:16.397Z,63.60
2019-02-17T08:33:56.586Z,63.80
2019-02-17T08:36:27.935Z,65.40
2019-02-17T08:39:01.109Z,66.80
2019-02-17T08:41:34.093Z,63.40
2019-02-17T08:44:05.673Z,67.80
2019-02-17T08:46:37.241Z,63.40
2019-02-17T08:49:08.525Z,60.80
2019-02-17T08:51:40.679Z,67.60
2019-02-17T08:54:12.130Z,58.00
2019-02-17T08:56:43.444Z,57.40
2019-02-17T08:59:14.894Z,58.60
2019-02-17T09:01:46.560Z,64.20
2019-02-17T09:04:18.023Z,64.60
2019-02-17T09:06:49.616Z,59.00
2019-02-17T09:09:21.368Z,57.40
2019-02-17T09:11:55.280Z,61.00
2019-02-17T09:14:26.845Z,63.40
2019-02-17T09:16:58.173Z,61.60
2019-02-17T09:19:29.709Z,57.80
2019-02-17T09:22:01.203Z,61.00
2019-02-17T09:24:32.820Z,55.00
2019-02-17T09:27:04.360Z,60.60
2019-02-17T09:29:35.870Z,59.00
2019-02-17T09:32:15.933Z,57.20
2019-02-17T09:34:40.485Z,58.00
2019-02-17T09:37:11.869Z,58.20
2019-02-17T09:39:43.227Z,59.00
2019-02-17T09:42:14.748Z,56.40
2019-02-17T09:44:47.340Z,57.00
2019-02-17T09:47:20.286Z,57.20
2019-02-17T09:49:51.632Z,58.00
2019-02-17T09:52:23.074Z,54.20
2019-02-17T09:54:54.696Z,59.40
2019-02-17T09:57:26.056Z,58.20
2019-02-17T09:59:57.672Z,57.20
2019-02-17T10:02:28.992Z,59.20
2019-02-17T10:05:00.523Z,57.60
2019-02-17T10:07:31.838Z,58.60
2019-02-17T10:10:03.351Z,57.00
2019-02-17T10:12:34.788Z,56.80
2019-02-17T10:15:06.830Z,59.00
2019-02-17T10:17:38.179Z,56.20
2019-02-17T10:20:11.292Z,59.40
2019-02-17T10:22:43.081Z,57.60
2019-02-17T10:25:14.628Z,52.80
2019-02-17T10:27:46.332Z,58.00
2019-02-17T10:30:17.973Z,57.80
2019-02-17T10:32:52.076Z,56.20
2019-02-17T10:35:23.405Z,53.80
2019-02-17T10:37:54.791Z,57.60
2019-02-17T10:40:26.410Z,54.40
2019-02-17T10:42:57.948Z,59.40
2019-02-17T10:45:29.376Z,56.80
2019-02-17T10:48:01.193Z,50.80
2019-02-17T10:50:32.326Z,55.20
2019-02-17T10:53:03.673Z,55.80
2019-02-17T10:55:34.834Z,56.80
2019-02-17T10:58:06.413Z,56.80
2019-02-17T11:00:37.988Z,51.00
2019-02-17T11:03:10.905Z,54.80
2019-02-17T11:05:42.816Z,55.20
2019-02-17T11:08:14.145Z,53.40
2019-02-17T11:10:45.929Z,55.40
2019-02-17T11:13:17.748Z,58.00
2019-02-17T11:15:49.951Z,55.40
2019-02-17T11:18:21.853Z,53.80
2019-02-17T11:20:53.461Z,56.40
2019-02-17T11:23:24.806Z,53.80
2019-02-17T11:25:56.216Z,54.00
2019-02-17T11:28:28.352Z,55.20
2019-02-17T11:31:00.341Z,57.60
2019-02-17T11:33:34.031Z,54.00
2019-02-17T11:36:06.138Z,55.80
2019-02-17T11:38:38.833Z,57.80
2019-02-17T11:41:12.561Z,54.00
2019-02-17T11:43:43.845Z,55.80
2019-02-17T11:46:15.512Z,51.80
2019-02-17T11:48:46.685Z,53.00
2019-02-17T11:51:18.390Z,56.40
2019-02-17T11:53:49.775Z,53.60
2019-02-17T11:56:21.433Z,54.00
2019-02-17T11:58:53.340Z,50.20
2019-02-17T12:01:25.046Z,53.20
2019-02-17T12:03:56.992Z,52.00
2019-02-17T12:06:28.958Z,47.00
2019-02-17T12:09:00.587Z,51.80
2019-02-17T12:11:32.296Z,53.60
2019-02-17T12:14:04.003Z,54.00
2019-02-17T12:16:37.233Z,54.00
2019-02-17T12:19:08.974Z,50.60
2019-02-17T12:22:08.658Z,45.40
2019-02-17T12:24:45.413Z,55.40
2019-02-17T12:27:25.159Z,56.80
2019-02-17T12:30:02.758Z,56.80
2019-02-17T12:32:42.553Z,55.80
2019-02-17T12:35:14.605Z,53.40
2019-02-17T12:37:47.447Z,53.00
2019-02-17T12:40:19.114Z,53.40
2019-02-17T12:42:51.179Z,52.40
2019-02-17T12:45:23.112Z,58.80
2019-02-17T12:47:57.895Z,58.80
2019-02-17T12:50:28.964Z,56.60
2019-02-17T12:53:00.386Z,57.40
2019-02-17T12:55:31.718Z,56.20
2019-02-17T12:58:03.549Z,53.80
2019-02-17T13:00:35.203Z,59.20
2019-02-17T13:03:07.054Z,57.20
2019-02-17T13:05:41.099Z,59.00
2019-02-17T13:08:12.588Z,63.00
2019-02-17T13:10:44.128Z,59.00
2019-02-17T13:13:15.679Z,61.80
2019-02-17T13:15:47.128Z,58.00
2019-02-17T13:18:19.676Z,61.80
2019-02-17T13:20:51.260Z,60.00
2019-02-17T13:23:24.134Z,60.80
2019-02-17T13:25:56.977Z,63.60
2019-02-17T13:28:30.248Z,60.80
2019-02-17T13:31:06.139Z,62.80
2019-02-17T13:33:40.991Z,63.00
2019-02-17T13:36:12.283Z,62.60
2019-02-17T13:38:43.897Z,60.00
2019-02-17T13:41:16.922Z,59.00
2019-02-17T13:43:48.683Z,64.20
2019-02-17T13:46:20.643Z,66.20
2019-02-17T13:48:52.356Z,61.80
2019-02-17T13:51:24.123Z,68.20
2019-02-17T13:53:56.731Z,69.40
2019-02-17T13:56:28.209Z,76.20
2019-02-17T13:59:00.424Z,65.00
2019-02-17T14:01:35.166Z,70.80
2019-02-17T14:04:06.727Z,70.40
2019-02-17T14:06:41.131Z,79.40
2019-02-17T14:09:12.840Z,82.40
2019-02-17T14:11:44.513Z,90.40
2019-02-17T14:14:19.901Z,89.20
2019-02-17T14:16:53.365Z,93.60
2019-02-17T14:19:25.135Z,93.00
2019-02-17T14:21:56.951Z,106.40
2019-02-17T14:24:28.517Z,111.60
2019-02-17T14:27:00.036Z,113.80
2019-02-17T14:29:31.417Z,118.80
2019-02-17T14:32:02.740Z,104.60
2019-02-17T14:34:34.384Z,107.40
2019-02-17T14:37:06.679Z,99.60
2019-02-17T14:39:38.100Z,107.60
2019-02-17T14:42:09.620Z,93.40
2019-02-17T14:44:41.080Z,99.40
2019-02-17T14:47:12.449Z,96.60
2019-02-17T14:49:44.076Z,95.40
2019-02-17T14:52:15.574Z,94.20
2019-02-17T14:54:47.052Z,104.00
2019-02-17T14:57:18.340Z,97.20
2019-02-17T14:59:50.320Z,90.80
2019-02-17T15:02:21.791Z,101.60
2019-02-17T15:04:53.151Z,95.20
2019-02-17T15:07:24.729Z,103.80
2019-02-17T15:09:56.562Z,99.80
2019-02-17T15:12:27.970Z,95.80
2019-02-17T15:14:59.282Z,100.40
2019-02-17T15:17:30.885Z,95.80
2019-02-17T15:20:02.390Z,100.80
2019-02-17T15:22:35.007Z,109.20
2019-02-17T15:25:07.558Z,107.00
2019-02-17T15:27:39.249Z,100.60
2019-02-17T15:30:19.913Z,117.60
2019-02-17T15:32:51.804Z,110.60
2019-02-17T15:35:23.127Z,115.60
2019-02-17T15:37:54.326Z,111.60
2019-02-17T15:40:25.686Z,143.60
2019-02-17T15:42:57.262Z,120.20
2019-02-17T15:45:28.927Z,123.40
2019-02-17T15:48:00.355Z,144.20
2019-02-17T15:50:32.237Z,149.00
2019-02-17T15:53:03.643Z,140.00
2019-02-17T15:55:34.916Z,138.80
2019-02-17T15:58:06.485Z,145.20
2019-02-17T16:00:55.269Z,125.20
2019-02-17T16:03:26.610Z,142.80
2019-02-17T16:05:58.493Z,137.00
2019-02-17T16:08:29.864Z,151.80
2019-02-17T16:11:01.483Z,139.60
2019-02-17T16:13:33.087Z,133.60
2019-02-17T16:16:04.961Z,140.00
2019-02-17T16:18:36.238Z,139.60
2019-02-17T16:21:07.722Z,139.40
2019-02-17T16:23:39.092Z,124.00
2019-02-17T16:26:10.851Z,146.00
2019-02-17T16:28:42.730Z,136.40
2019-02-17T16:31:14.262Z,140.40
2019-02-17T16:33:45.608Z,144.20
2019-02-17T16:36:17.413Z,139.60
2019-02-17T16:38:48.915Z,140.00
2019-02-17T16:41:20.562Z,143.60
2019-02-17T16:43:52.197Z,179.00
2019-02-17T16:46:23.318Z,199.00
2019-02-17T16:48:54.885Z,170.75
2019-02-17T16:51:26.390Z,189.75
2019-02-17T16:53:59.720Z,176.75
2019-02-17T16:56:31.368Z,179.25
2019-02-17T16:59:03.017Z,186.75
2019-02-17T17:01:35.072Z,176.25
2019-02-17T17:04:06.627Z,174.25
2019-02-17T17:06:38.208Z,169.75
2019-02-17T17:09:10.099Z,152.00
2019-02-17T17:11:42.041Z,161.25
2019-02-17T17:14:13.606Z,172.75
2019-02-17T17:16:44.947Z,155.40
2019-02-17T17:19:16.499Z,155.40
2019-02-17T17:21:48.354Z,161.00
2019-02-17T17:24:21.815Z,150.40
2019-02-17T17:26:53.210Z,172.75
2019-02-17T17:29:25.087Z,166.50
2019-02-17T17:31:56.638Z,170.75
2019-02-17T17:34:28.206Z,168.00
2019-02-17T17:36:59.701Z,167.00
2019-02-17T17:39:32.819Z,208.25
2019-02-17T17:42:04.634Z,201.25
2019-02-17T17:44:36.521Z,266.25
2019-02-17T17:47:08.371Z,211.25
2019-02-17T17:49:40.014Z,196.00
2019-02-17T17:52:11.391Z,197.50
2019-02-17T17:54:42.835Z,190.50
2019-02-17T17:57:14.462Z,178.25
2019-02-17T17:59:46.555Z,178.00
2019-02-17T18:02:18.195Z,165.25
2019-02-17T18:04:49.746Z,175.00
2019-02-17T18:07:21.141Z,174.25
2019-02-17T18:09:52.471Z,173.00
2019-02-17T18:12:24.027Z,205.50
2019-02-17T18:14:55.795Z,202.25
2019-02-17T18:17:27.184Z,189.50
2019-02-17T18:19:59.164Z,187.50
2019-02-17T18:22:30.617Z,171.25
2019-02-17T18:25:02.164Z,171.50
2019-02-17T18:27:33.797Z,175.50
2019-02-17T18:30:06.571Z,153.60
2019-02-17T18:32:38.056Z,158.20
2019-02-17T18:35:19.258Z,159.20
2019-02-17T18:37:43.161Z,158.80
2019-02-17T18:40:14.633Z,149.60
2019-02-17T18:42:46.259Z,146.60
2019-02-17T18:45:17.794Z,153.60
2019-02-17T18:47:49.542Z,150.80
2019-02-17T18:50:21.047Z,150.40
2019-02-17T18:52:52.495Z,150.00
2019-02-17T18:55:24.196Z,146.60
2019-02-17T18:57:55.931Z,140.20
2019-02-17T19:00:28.172Z,153.00
2019-02-17T19:02:59.337Z,141.20
2019-02-17T19:05:32.624Z,151.80
2019-02-17T19:08:03.905Z,147.80
2019-02-17T19:10:35.550Z,148.80
2019-02-17T19:13:07.125Z,148.80
2019-02-17T19:15:38.812Z,147.00
2019-02-17T19:18:10.168Z,142.20
2019-02-17T19:20:41.269Z,148.80
2019-02-17T19:23:12.993Z,146.00
2019-02-17T19:25:44.343Z,126.20
2019-02-17T19:28:16.125Z,133.40
2019-02-17T19:30:47.664Z,140.80
2019-02-17T19:33:19.828Z,134.40
2019-02-17T19:35:51.033Z,124.20
2019-02-17T19:38:24.684Z,139.40
2019-02-17T19:40:55.989Z,140.60
2019-02-17T19:43:27.251Z,141.80
2019-02-17T19:45:58.484Z,131.20
2019-02-17T19:48:29.792Z,127.00
2019-02-17T19:51:01.255Z,148.40
2019-02-17T19:53:32.840Z,136.40
2019-02-17T19:56:04.156Z,134.20
2019-02-17T19:58:37.705Z,139.60
2019-02-17T20:01:09.143Z,149.80
2019-02-17T20:03:47.189Z,143.60
2019-02-17T20:06:21.098Z,143.20
2019-02-17T20:08:52.745Z,130.60
2019-02-17T20:11:24.152Z,145.20
2019-02-17T20:13:55.958Z,138.60
2019-02-17T20:16:27.617Z,136.60
2019-02-17T20:18:59.068Z,147.60
2019-02-17T20:21:30.286Z,143.40
2019-02-17T20:24:02.187Z,137.20
2019-02-17T20:26:33.815Z,151.40
2019-02-17T20:29:05.474Z,145.80
2019-02-17T20:31:36.808Z,153.20
2019-02-17T20:34:08.246Z,148.00
2019-02-17T20:36:39.475Z,155.60
2019-02-17T20:39:11.564Z,139.00
2019-02-17T20:41:43.215Z,150.80
2019-02-17T20:44:15.064Z,142.60
2019-02-17T20:46:46.707Z,145.20
2019-02-17T20:49:18.081Z,148.80
2019-02-17T20:51:50.350Z,150.20
2019-02-17T20:54:21.913Z,144.40
2019-02-17T20:56:53.574Z,147.20
2019-02-17T20:59:25.196Z,157.60
2019-02-17T21:01:56.661Z,135.40
2019-02-17T21:04:28.215Z,159.40
2019-02-17T21:07:00.510Z,157.40
2019-02-17T21:09:31.969Z,153.00
2019-02-17T21:12:03.258Z,153.00
2019-02-17T21:14:34.721Z,145.20
2019-02-17T21:17:06.046Z,142.80
2019-02-17T21:19:37.280Z,139.40
2019-02-17T21:22:08.485Z,158.00
2019-02-17T21:24:40.815Z,148.40
2019-02-17T21:27:12.086Z,147.00
2019-02-17T21:29:43.281Z,141.20
2019-02-17T21:32:14.712Z,146.00
2019-02-17T21:34:45.999Z,140.20
2019-02-17T21:37:17.343Z,145.00
2019-02-17T21:39:48.686Z,145.00
2019-02-17T21:42:20.300Z,137.60
2019-02-17T21:44:51.671Z,155.80
2019-02-17T21:47:23.156Z,143.40
2019-02-17T21:49:54.743Z,138.20
2019-02-17T21:52:26.482Z,139.20
2019-02-17T21:54:57.838Z,140.60
2019-02-17T21:57:29.237Z,136.60
2019-02-17T22:00:00.489Z,137.20
2019-02-17T22:02:33.493Z,135.80
2019-02-17T22:05:05.077Z,132.80
2019-02-17T22:07:36.863Z,130.00
2019-02-17T22:10:08.770Z,142.80
2019-02-17T22:12:40.336Z,148.40
2019-02-17T22:15:13.246Z,141.20
2019-02-17T22:17:44.446Z,141.40
2019-02-17T22:20:15.770Z,137.80
2019-02-17T22:22:46.934Z,135.00
2019-02-17T22:25:18.408Z,139.40
2019-02-17T22:27:50.131Z,140.40
2019-02-17T22:30:21.538Z,138.20
2019-02-17T22:32:52.713Z,144.60
2019-02-17T22:35:24.409Z,133.80
2019-02-17T22:37:55.658Z,138.00
2019-02-17T22:40:27.217Z,129.60
2019-02-17T22:42:58.617Z,139.80
2019-02-17T22:45:30.221Z,125.40
2019-02-17T22:48:01.403Z,144.60
2019-02-17T22:50:33.064Z,134.00
2019-02-17T22:53:04.793Z,138.60
2019-02-17T22:55:36.276Z,137.20
2019-02-17T22:58:07.442Z,135.80
2019-02-17T23:00:48.279Z,131.60
2019-02-17T23:03:21.703Z,151.20
2019-02-17T23:05:52.927Z,132.60
2019-02-17T23:08:24.402Z,140.60
2019-02-17T23:10:55.650Z,140.00
2019-02-17T23:13:27.071Z,134.80
2019-02-17T23:15:59.971Z,125.00
2019-02-17T23:18:31.227Z,139.80
2019-02-17T23:21:02.418Z,129.40
2019-02-17T23:23:33.994Z,138.60
2019-02-17T23:26:05.703Z,132.60
2019-02-17T23:28:37.137Z,133.40
2019-02-17T23:31:08.542Z,132.20
2019-02-17T23:33:39.980Z,140.80
2019-02-17T23:36:11.127Z,136.20
2019-02-17T23:38:42.952Z,136.80
2019-02-17T23:41:14.276Z,141.80
2019-02-17T23:43:45.623Z,135.00
2019-02-17T23:46:16.816Z,139.20
2019-02-17T23:48:48.274Z,119.00
2019-02-17T23:51:19.910Z,134.40
2019-02-17T23:53:52.117Z,129.40
2019-02-17T23:56:23.584Z,139.00
2019-02-17T23:58:54.922Z,118.00
